sensor_id;sensor_type;location;lat;lon;timestamp;pressure;altitude;pressure_sealevel;temperature;humidity
47636;BME280;33364;50.766;15.338;2023-04-28T00:01:16;95200.16;;;1.42;67.20
47636;BME280;33364;50.766;15.338;2023-04-28T00:03:41;95200.31;;;1.41;68.20
47636;BME280;33364;50.766;15.338;2023-04-28T00:06:08;95194.44;;;1.39;67.72
47636;BME280;33364;50.766;15.338;2023-04-28T00:08:34;95188.56;;;1.37;68.02
47636;BME280;33364;50.766;15.338;2023-04-28T00:10:59;95186.41;;;1.40;67.83
47636;BME280;33364;50.766;15.338;2023-04-28T00:13:25;95189.03;;;1.40;69.38
47636;BME280;33364;50.766;15.338;2023-04-28T00:15:52;95189.66;;;1.42;67.65
47636;BME280;33364;50.766;15.338;2023-04-28T00:18:19;95190.13;;;1.31;67.29
47636;BME280;33364;50.766;15.338;2023-04-28T00:20:45;95192.84;;;1.23;67.90
47636;BME280;33364;50.766;15.338;2023-04-28T00:23:11;95194.44;;;1.24;68.20
47636;BME280;33364;50.766;15.338;2023-04-28T00:25:37;95191.91;;;1.16;67.34
47636;BME280;33364;50.766;15.338;2023-04-28T00:28:02;95192.66;;;1.24;69.07
47636;BME280;33364;50.766;15.338;2023-04-28T00:30:29;95193.63;;;1.23;68.45
47636;BME280;33364;50.766;15.338;2023-04-28T00:32:55;95184.41;;;1.27;67.95
47636;BME280;33364;50.766;15.338;2023-04-28T00:35:21;95185.44;;;1.26;67.84
47636;BME280;33364;50.766;15.338;2023-04-28T00:37:47;95181.53;;;1.22;68.50
47636;BME280;33364;50.766;15.338;2023-04-28T00:40:13;95174.69;;;1.21;68.32
47636;BME280;33364;50.766;15.338;2023-04-28T00:42:38;95182.28;;;1.16;67.73
47636;BME280;33364;50.766;15.338;2023-04-28T00:45:04;95177.38;;;1.13;68.06
47636;BME280;33364;50.766;15.338;2023-04-28T00:47:36;95169.53;;;1.13;69.50
47636;BME280;33364;50.766;15.338;2023-04-28T00:50:03;95170.06;;;1.08;68.62
47636;BME280;33364;50.766;15.338;2023-04-28T00:52:31;95174.13;;;1.11;68.97
47636;BME280;33364;50.766;15.338;2023-04-28T00:54:57;95167.00;;;1.20;68.02
47636;BME280;33364;50.766;15.338;2023-04-28T00:57:22;95164.31;;;1.13;68.32
47636;BME280;33364;50.766;15.338;2023-04-28T00:59:48;95168.34;;;1.01;69.43
47636;BME280;33364;50.766;15.338;2023-04-28T01:02:14;95168.44;;;0.93;69.50
47636;BME280;33364;50.766;15.338;2023-04-28T01:04:44;95163.19;;;0.93;68.87
47636;BME280;33364;50.766;15.338;2023-04-28T01:07:10;95164.94;;;1.00;69.65
47636;BME280;33364;50.766;15.338;2023-04-28T01:09:36;95159.78;;;0.92;70.13
47636;BME280;33364;50.766;15.338;2023-04-28T01:12:02;95165.47;;;0.96;69.56
47636;BME280;33364;50.766;15.338;2023-04-28T01:14:28;95164.00;;;0.93;70.92
47636;BME280;33364;50.766;15.338;2023-04-28T01:16:54;95162.75;;;1.04;70.68
47636;BME280;33364;50.766;15.338;2023-04-28T01:19:21;95150.28;;;1.06;70.40
47636;BME280;33364;50.766;15.338;2023-04-28T01:21:50;95157.25;;;1.14;70.20
47636;BME280;33364;50.766;15.338;2023-04-28T01:24:17;95158.69;;;1.01;70.38
47636;BME280;33364;50.766;15.338;2023-04-28T01:26:42;95153.19;;;0.96;70.45
47636;BME280;33364;50.766;15.338;2023-04-28T01:29:09;95155.44;;;0.99;69.29
47636;BME280;33364;50.766;15.338;2023-04-28T01:31:35;95161.13;;;1.03;70.40
47636;BME280;33364;50.766;15.338;2023-04-28T01:34:01;95157.88;;;1.01;69.32
47636;BME280;33364;50.766;15.338;2023-04-28T01:36:26;95153.28;;;1.03;71.09
47636;BME280;33364;50.766;15.338;2023-04-28T01:38:53;95155.53;;;1.06;70.03
47636;BME280;33364;50.766;15.338;2023-04-28T01:41:19;95146.44;;;1.02;71.47
47636;BME280;33364;50.766;15.338;2023-04-28T01:43:45;95145.63;;;1.16;71.21
47636;BME280;33364;50.766;15.338;2023-04-28T01:46:10;95142.28;;;1.22;72.05
47636;BME280;33364;50.766;15.338;2023-04-28T01:48:36;95142.34;;;1.29;69.29
47636;BME280;33364;50.766;15.338;2023-04-28T01:51:02;95142.06;;;1.39;70.93
47636;BME280;33364;50.766;15.338;2023-04-28T01:53:28;95137.59;;;1.33;70.05
47636;BME280;33364;50.766;15.338;2023-04-28T01:55:53;95130.72;;;1.32;69.36
47636;BME280;33364;50.766;15.338;2023-04-28T01:58:20;95137.22;;;1.36;70.71
47636;BME280;33364;50.766;15.338;2023-04-28T02:00:46;95130.09;;;1.30;68.92
47636;BME280;33364;50.766;15.338;2023-04-28T02:03:12;95134.97;;;1.33;69.67
47636;BME280;33364;50.766;15.338;2023-04-28T02:05:38;95133.06;;;1.26;68.63
47636;BME280;33364;50.766;15.338;2023-04-28T02:08:04;95131.34;;;1.34;71.10
47636;BME280;33364;50.766;15.338;2023-04-28T02:10:29;95136.41;;;1.35;70.88
47636;BME280;33364;50.766;15.338;2023-04-28T02:12:55;95133.84;;;1.42;70.68
47636;BME280;33364;50.766;15.338;2023-04-28T02:15:21;95134.13;;;1.32;70.66
47636;BME280;33364;50.766;15.338;2023-04-28T02:17:47;95135.16;;;1.31;69.99
47636;BME280;33364;50.766;15.338;2023-04-28T02:20:12;95140.56;;;1.30;69.64
47636;BME280;33364;50.766;15.338;2023-04-28T02:22:41;95143.09;;;1.23;69.97
47636;BME280;33364;50.766;15.338;2023-04-28T02:25:07;95133.25;;;1.10;70.13
47636;BME280;33364;50.766;15.338;2023-04-28T02:27:34;95135.53;;;1.13;72.45
47636;BME280;33364;50.766;15.338;2023-04-28T02:30:02;95131.88;;;1.14;70.81
47636;BME280;33364;50.766;15.338;2023-04-28T02:32:28;95129.53;;;1.19;71.53
47636;BME280;33364;50.766;15.338;2023-04-28T02:34:54;95120.44;;;1.15;70.63
47636;BME280;33364;50.766;15.338;2023-04-28T02:37:20;95129.28;;;1.14;73.36
47636;BME280;33364;50.766;15.338;2023-04-28T02:39:47;95118.00;;;1.28;71.86
47636;BME280;33364;50.766;15.338;2023-04-28T02:42:13;95120.72;;;1.20;70.15
47636;BME280;33364;50.766;15.338;2023-04-28T02:44:38;95117.81;;;1.15;71.29
47636;BME280;33364;50.766;15.338;2023-04-28T02:47:05;95118.63;;;1.16;70.65
47636;BME280;33364;50.766;15.338;2023-04-28T02:49:30;95113.75;;;1.13;71.82
47636;BME280;33364;50.766;15.338;2023-04-28T02:51:56;95110.22;;;1.20;72.91
47636;BME280;33364;50.766;15.338;2023-04-28T02:54:22;95109.16;;;1.15;71.14
47636;BME280;33364;50.766;15.338;2023-04-28T02:56:55;95117.91;;;1.22;70.83
47636;BME280;33364;50.766;15.338;2023-04-28T02:59:21;95119.53;;;1.23;71.61
47636;BME280;33364;50.766;15.338;2023-04-28T03:01:47;95115.09;;;1.23;71.99
47636;BME280;33364;50.766;15.338;2023-04-28T03:04:14;95114.84;;;1.18;71.73
47636;BME280;33364;50.766;15.338;2023-04-28T03:06:41;95117.38;;;1.26;73.13
47636;BME280;33364;50.766;15.338;2023-04-28T03:09:07;95115.81;;;1.32;70.35
47636;BME280;33364;50.766;15.338;2023-04-28T03:11:33;95114.09;;;1.39;70.98
47636;BME280;33364;50.766;15.338;2023-04-28T03:13:59;95114.22;;;1.31;74.13
47636;BME280;33364;50.766;15.338;2023-04-28T03:16:25;95115.53;;;1.42;72.12
47636;BME280;33364;50.766;15.338;2023-04-28T03:18:50;95108.31;;;1.44;71.10
47636;BME280;33364;50.766;15.338;2023-04-28T03:21:16;95108.13;;;1.45;72.29
47636;BME280;33364;50.766;15.338;2023-04-28T03:23:42;95107.06;;;1.40;71.14
47636;BME280;33364;50.766;15.338;2023-04-28T03:26:07;95107.31;;;1.45;72.44
47636;BME280;33364;50.766;15.338;2023-04-28T03:28:33;95103.91;;;1.44;71.31
47636;BME280;33364;50.766;15.338;2023-04-28T03:30:59;95096.38;;;1.56;72.27
47636;BME280;33364;50.766;15.338;2023-04-28T03:33:25;95096.25;;;1.64;71.37
47636;BME280;33364;50.766;15.338;2023-04-28T03:35:51;95103.13;;;1.65;71.47
47636;BME280;33364;50.766;15.338;2023-04-28T03:38:17;95097.34;;;1.55;71.14
47636;BME280;33364;50.766;15.338;2023-04-28T03:40:43;95099.41;;;1.60;73.68
47636;BME280;33364;50.766;15.338;2023-04-28T03:43:09;95099.50;;;1.67;70.75
47636;BME280;33364;50.766;15.338;2023-04-28T03:45:35;95096.63;;;1.61;71.19
47636;BME280;33364;50.766;15.338;2023-04-28T03:48:00;95096.44;;;1.63;71.47
47636;BME280;33364;50.766;15.338;2023-04-28T03:50:26;95093.88;;;1.70;69.91
47636;BME280;33364;50.766;15.338;2023-04-28T03:52:52;95087.97;;;1.61;71.76
47636;BME280;33364;50.766;15.338;2023-04-28T03:55:18;95094.25;;;1.67;70.76
47636;BME280;33364;50.766;15.338;2023-04-28T03:57:44;95098.38;;;1.54;69.99
47636;BME280;33364;50.766;15.338;2023-04-28T04:00:10;95101.38;;;1.36;72.19
47636;BME280;33364;50.766;15.338;2023-04-28T04:02:36;95098.84;;;1.43;72.57
47636;BME280;33364;50.766;15.338;2023-04-28T04:05:02;95096.47;;;1.48;71.40
47636;BME280;33364;50.766;15.338;2023-04-28T04:07:27;95096.53;;;1.55;70.98
47636;BME280;33364;50.766;15.338;2023-04-28T04:09:53;95088.06;;;1.53;74.76
47636;BME280;33364;50.766;15.338;2023-04-28T04:12:19;95096.00;;;1.59;73.51
47636;BME280;33364;50.766;15.338;2023-04-28T04:14:44;95086.13;;;1.61;71.67
47636;BME280;33364;50.766;15.338;2023-04-28T04:17:10;95086.69;;;1.72;72.01
47636;BME280;33364;50.766;15.338;2023-04-28T04:19:36;95094.13;;;1.75;70.05
47636;BME280;33364;50.766;15.338;2023-04-28T04:22:01;95101.00;;;1.76;70.03
47636;BME280;33364;50.766;15.338;2023-04-28T04:24:27;95099.13;;;1.70;70.90
47636;BME280;33364;50.766;15.338;2023-04-28T04:26:53;95096.06;;;1.66;70.91
47636;BME280;33364;50.766;15.338;2023-04-28T04:29:19;95103.13;;;1.65;70.52
47636;BME280;33364;50.766;15.338;2023-04-28T04:31:44;95102.88;;;1.60;70.33
47636;BME280;33364;50.766;15.338;2023-04-28T04:34:10;95101.94;;;1.68;72.24
47636;BME280;33364;50.766;15.338;2023-04-28T04:36:36;95096.84;;;1.81;70.54
47636;BME280;33364;50.766;15.338;2023-04-28T04:39:02;95097.09;;;1.87;69.82
47636;BME280;33364;50.766;15.338;2023-04-28T04:41:28;95098.78;;;1.94;70.33
47636;BME280;33364;50.766;15.338;2023-04-28T04:43:53;95093.03;;;2.06;71.88
47636;BME280;33364;50.766;15.338;2023-04-28T04:46:19;95091.66;;;2.10;70.37
47636;BME280;33364;50.766;15.338;2023-04-28T04:48:45;95092.09;;;2.13;71.54
47636;BME280;33364;50.766;15.338;2023-04-28T04:51:11;95087.59;;;2.29;72.30
47636;BME280;33364;50.766;15.338;2023-04-28T04:53:37;95092.13;;;2.42;70.77
47636;BME280;33364;50.766;15.338;2023-04-28T04:56:03;95085.75;;;2.51;70.14
47636;BME280;33364;50.766;15.338;2023-04-28T04:58:29;95091.22;;;2.56;70.17
47636;BME280;33364;50.766;15.338;2023-04-28T05:00:54;95083.38;;;2.56;69.11
47636;BME280;33364;50.766;15.338;2023-04-28T05:03:20;95076.50;;;2.55;70.72
47636;BME280;33364;50.766;15.338;2023-04-28T05:05:46;95081.41;;;2.65;71.40
47636;BME280;33364;50.766;15.338;2023-04-28T05:08:13;95077.44;;;2.75;69.98
47636;BME280;33364;50.766;15.338;2023-04-28T05:10:39;95082.72;;;2.82;69.31
47636;BME280;33364;50.766;15.338;2023-04-28T05:13:05;95073.25;;;2.81;68.38
47636;BME280;33364;50.766;15.338;2023-04-28T05:15:31;95073.88;;;2.83;69.28
47636;BME280;33364;50.766;15.338;2023-04-28T05:17:57;95072.84;;;2.84;69.14
47636;BME280;33364;50.766;15.338;2023-04-28T05:20:23;95073.91;;;2.90;68.74
47636;BME280;33364;50.766;15.338;2023-04-28T05:22:49;95066.63;;;2.92;69.39
47636;BME280;33364;50.766;15.338;2023-04-28T05:25:14;95071.94;;;2.99;69.95
47636;BME280;33364;50.766;15.338;2023-04-28T05:27:40;95056.84;;;3.07;68.93
47636;BME280;33364;50.766;15.338;2023-04-28T05:30:07;95063.50;;;3.10;67.74
47636;BME280;33364;50.766;15.338;2023-04-28T05:32:34;95066.53;;;3.13;68.89
47636;BME280;33364;50.766;15.338;2023-04-28T05:35:00;95067.22;;;3.22;69.26
47636;BME280;33364;50.766;15.338;2023-04-28T05:37:26;95064.44;;;3.37;67.81
47636;BME280;33364;50.766;15.338;2023-04-28T05:39:52;95063.06;;;3.55;65.78
47636;BME280;33364;50.766;15.338;2023-04-28T05:42:18;95069.16;;;3.62;66.69
47636;BME280;33364;50.766;15.338;2023-04-28T05:44:44;95065.75;;;3.68;67.74
47636;BME280;33364;50.766;15.338;2023-04-28T05:47:10;95064.53;;;3.71;66.96
47636;BME280;33364;50.766;15.338;2023-04-28T05:49:36;95056.47;;;3.85;66.48
47636;BME280;33364;50.766;15.338;2023-04-28T05:52:03;95058.91;;;3.94;66.27
47636;BME280;33364;50.766;15.338;2023-04-28T05:54:29;95056.53;;;4.06;66.11
47636;BME280;33364;50.766;15.338;2023-04-28T05:56:55;95054.09;;;4.11;67.20
47636;BME280;33364;50.766;15.338;2023-04-28T05:59:20;95054.69;;;4.13;65.49
47636;BME280;33364;50.766;15.338;2023-04-28T06:01:46;95052.91;;;4.33;65.70
47636;BME280;33364;50.766;15.338;2023-04-28T06:04:12;95051.47;;;4.44;63.52
47636;BME280;33364;50.766;15.338;2023-04-28T06:06:38;95053.88;;;4.52;64.22
47636;BME280;33364;50.766;15.338;2023-04-28T06:09:04;95059.34;;;4.64;63.31
47636;BME280;33364;50.766;15.338;2023-04-28T06:11:30;95050.03;;;4.68;64.10
47636;BME280;33364;50.766;15.338;2023-04-28T06:13:55;95040.50;;;4.81;63.54
47636;BME280;33364;50.766;15.338;2023-04-28T06:16:21;95041.88;;;4.90;63.00
47636;BME280;33364;50.766;15.338;2023-04-28T06:18:48;95038.25;;;4.91;61.52
47636;BME280;33364;50.766;15.338;2023-04-28T06:21:15;95045.31;;;5.04;59.94
47636;BME280;33364;50.766;15.338;2023-04-28T06:23:40;95035.34;;;5.12;59.76
47636;BME280;33364;50.766;15.338;2023-04-28T06:26:07;95039.38;;;5.22;58.86
47636;BME280;33364;50.766;15.338;2023-04-28T06:28:33;95041.56;;;5.31;59.40
47636;BME280;33364;50.766;15.338;2023-04-28T06:30:59;95037.59;;;5.54;59.70
47636;BME280;33364;50.766;15.338;2023-04-28T06:33:25;95043.97;;;5.78;57.49
47636;BME280;33364;50.766;15.338;2023-04-28T06:35:52;95041.00;;;6.06;56.88
47636;BME280;33364;50.766;15.338;2023-04-28T06:38:18;95043.13;;;6.23;55.70
47636;BME280;33364;50.766;15.338;2023-04-28T06:40:44;95036.31;;;6.34;56.55
47636;BME280;33364;50.766;15.338;2023-04-28T06:43:10;95035.47;;;6.40;54.08
47636;BME280;33364;50.766;15.338;2023-04-28T06:45:37;95037.97;;;6.53;55.43
47636;BME280;33364;50.766;15.338;2023-04-28T06:48:04;95038.28;;;6.64;53.45
47636;BME280;33364;50.766;15.338;2023-04-28T06:50:30;95038.28;;;6.64;52.75
47636;BME280;33364;50.766;15.338;2023-04-28T06:52:56;95033.97;;;6.69;52.36
47636;BME280;33364;50.766;15.338;2023-04-28T06:55:23;95030.25;;;6.77;52.00
47636;BME280;33364;50.766;15.338;2023-04-28T06:57:49;95033.41;;;7.04;52.47
47636;BME280;33364;50.766;15.338;2023-04-28T07:00:15;95023.88;;;7.40;49.20
47636;BME280;33364;50.766;15.338;2023-04-28T07:02:41;95022.38;;;7.63;48.90
47636;BME280;33364;50.766;15.338;2023-04-28T07:05:07;95027.03;;;7.79;49.46
47636;BME280;33364;50.766;15.338;2023-04-28T07:07:33;95021.59;;;8.04;49.13
47636;BME280;33364;50.766;15.338;2023-04-28T07:09:59;95021.50;;;8.23;47.61
47636;BME280;33364;50.766;15.338;2023-04-28T07:12:26;95018.44;;;8.38;46.75
47636;BME280;33364;50.766;15.338;2023-04-28T07:14:52;95009.59;;;8.56;47.98
47636;BME280;33364;50.766;15.338;2023-04-28T07:17:18;95020.78;;;8.70;46.32
47636;BME280;33364;50.766;15.338;2023-04-28T07:19:44;95015.69;;;8.92;45.63
47636;BME280;33364;50.766;15.338;2023-04-28T07:22:09;95014.88;;;9.03;44.79
47636;BME280;33364;50.766;15.338;2023-04-28T07:24:35;95014.56;;;8.99;44.91
47636;BME280;33364;50.766;15.338;2023-04-28T07:27:01;95018.56;;;9.02;45.13
47636;BME280;33364;50.766;15.338;2023-04-28T07:29:28;95014.28;;;9.13;45.70
47636;BME280;33364;50.766;15.338;2023-04-28T07:32:01;95017.75;;;9.13;44.91
47636;BME280;33364;50.766;15.338;2023-04-28T07:34:29;95013.19;;;9.37;45.85
47636;BME280;33364;50.766;15.338;2023-04-28T07:36:55;95007.72;;;9.56;44.72
47636;BME280;33364;50.766;15.338;2023-04-28T07:39:21;95002.47;;;9.73;45.55
47636;BME280;33364;50.766;15.338;2023-04-28T07:41:47;95001.09;;;9.99;43.27
47636;BME280;33364;50.766;15.338;2023-04-28T07:44:13;95004.78;;;9.98;44.30
47636;BME280;33364;50.766;15.338;2023-04-28T07:46:38;95000.78;;;10.13;42.52
47636;BME280;33364;50.766;15.338;2023-04-28T07:49:04;94995.53;;;10.46;44.59
47636;BME280;33364;50.766;15.338;2023-04-28T07:51:30;94995.66;;;10.57;41.27
47636;BME280;33364;50.766;15.338;2023-04-28T07:53:56;94996.81;;;10.61;42.78
47636;BME280;33364;50.766;15.338;2023-04-28T07:56:22;94986.44;;;10.81;42.07
47636;BME280;33364;50.766;15.338;2023-04-28T07:58:48;94985.31;;;10.94;42.76
47636;BME280;33364;50.766;15.338;2023-04-28T08:01:13;94986.00;;;11.07;41.02
47636;BME280;33364;50.766;15.338;2023-04-28T08:03:39;94986.00;;;11.29;42.18
47636;BME280;33364;50.766;15.338;2023-04-28T08:06:05;94993.81;;;11.57;39.85
47636;BME280;33364;50.766;15.338;2023-04-28T08:08:31;94987.31;;;11.48;40.23
47636;BME280;33364;50.766;15.338;2023-04-28T08:10:57;94988.09;;;11.71;40.70
47636;BME280;33364;50.766;15.338;2023-04-28T08:13:23;94991.28;;;11.73;39.60
47636;BME280;33364;50.766;15.338;2023-04-28T08:15:49;94987.09;;;11.77;39.30
47636;BME280;33364;50.766;15.338;2023-04-28T08:18:15;94979.97;;;12.10;40.93
47636;BME280;33364;50.766;15.338;2023-04-28T08:20:41;94978.56;;;12.02;39.16
47636;BME280;33364;50.766;15.338;2023-04-28T08:23:08;94972.78;;;12.10;39.42
47636;BME280;33364;50.766;15.338;2023-04-28T08:25:34;94970.78;;;12.23;38.78
47636;BME280;33364;50.766;15.338;2023-04-28T08:28:00;94974.13;;;12.45;38.23
47636;BME280;33364;50.766;15.338;2023-04-28T08:30:28;94972.00;;;12.42;38.50
47636;BME280;33364;50.766;15.338;2023-04-28T08:32:54;94969.19;;;12.64;38.45
47636;BME280;33364;50.766;15.338;2023-04-28T08:35:19;94972.16;;;12.68;39.08
47636;BME280;33364;50.766;15.338;2023-04-28T08:37:45;94963.66;;;12.71;38.74
47636;BME280;33364;50.766;15.338;2023-04-28T08:40:14;94967.22;;;12.49;39.25
47636;BME280;33364;50.766;15.338;2023-04-28T08:42:40;94956.34;;;12.56;38.04
47636;BME280;33364;50.766;15.338;2023-04-28T08:45:06;94955.22;;;12.47;38.23
47636;BME280;33364;50.766;15.338;2023-04-28T08:47:35;94955.59;;;12.61;41.74
47636;BME280;33364;50.766;15.338;2023-04-28T08:50:06;94947.88;;;12.64;38.00
47636;BME280;33364;50.766;15.338;2023-04-28T08:52:34;94950.75;;;13.00;38.86
47636;BME280;33364;50.766;15.338;2023-04-28T08:55:04;94940.94;;;12.63;37.56
47636;BME280;33364;50.766;15.338;2023-04-28T08:57:49;94948.28;;;12.89;38.71
47636;BME280;33364;50.766;15.338;2023-04-28T09:00:19;94935.28;;;13.08;38.42
47636;BME280;33364;50.766;15.338;2023-04-28T09:02:45;94938.38;;;13.37;37.97
47636;BME280;33364;50.766;15.338;2023-04-28T09:05:11;94949.47;;;13.82;37.22
47636;BME280;33364;50.766;15.338;2023-04-28T09:07:38;94940.78;;;13.33;36.32
47636;BME280;33364;50.766;15.338;2023-04-28T09:10:23;94942.22;;;13.03;37.60
47636;BME280;33364;50.766;15.338;2023-04-28T09:12:52;94940.03;;;12.90;40.07
47636;BME280;33364;50.766;15.338;2023-04-28T09:17:51;94943.88;;;12.24;39.24
47636;BME280;33364;50.766;15.338;2023-04-28T09:20:24;94942.19;;;12.13;39.67
47636;BME280;33364;50.766;15.338;2023-04-28T09:22:51;94938.00;;;12.27;40.28
47636;BME280;33364;50.766;15.338;2023-04-28T09:25:17;94943.16;;;12.34;41.57
47636;BME280;33364;50.766;15.338;2023-04-28T09:27:44;94947.13;;;11.99;39.63
47636;BME280;33364;50.766;15.338;2023-04-28T09:30:09;94933.84;;;12.04;40.44
47636;BME280;33364;50.766;15.338;2023-04-28T09:32:35;94925.38;;;12.12;38.73
47636;BME280;33364;50.766;15.338;2023-04-28T09:35:01;94921.03;;;12.39;40.55
47636;BME280;33364;50.766;15.338;2023-04-28T09:37:30;94914.84;;;13.29;39.10
47636;BME280;33364;50.766;15.338;2023-04-28T09:39:57;94899.69;;;13.34;36.97
47636;BME280;33364;50.766;15.338;2023-04-28T09:42:35;94919.97;;;13.35;37.37
47636;BME280;33364;50.766;15.338;2023-04-28T09:45:12;94892.28;;;12.83;37.59
47636;BME280;33364;50.766;15.338;2023-04-28T09:47:40;94889.56;;;13.36;37.71
47636;BME280;33364;50.766;15.338;2023-04-28T09:50:08;94898.66;;;13.46;36.91
47636;BME280;33364;50.766;15.338;2023-04-28T09:52:37;94892.47;;;13.35;37.45
47636;BME280;33364;50.766;15.338;2023-04-28T09:55:05;94899.63;;;13.24;37.34
47636;BME280;33364;50.766;15.338;2023-04-28T09:57:33;94897.50;;;13.26;36.99
47636;BME280;33364;50.766;15.338;2023-04-28T09:59:59;94899.56;;;13.09;36.74
47636;BME280;33364;50.766;15.338;2023-04-28T10:02:26;94906.53;;;13.15;38.21
47636;BME280;33364;50.766;15.338;2023-04-28T10:04:52;94902.25;;;13.14;38.14
47636;BME280;33364;50.766;15.338;2023-04-28T10:07:19;94892.00;;;12.85;37.70
47636;BME280;33364;50.766;15.338;2023-04-28T10:09:46;94899.81;;;13.02;38.14
47636;BME280;33364;50.766;15.338;2023-04-28T10:12:16;94894.81;;;13.16;38.93
47636;BME280;33364;50.766;15.338;2023-04-28T10:14:42;94903.91;;;13.30;39.34
47636;BME280;33364;50.766;15.338;2023-04-28T10:17:16;94895.09;;;13.19;36.98
47636;BME280;33364;50.766;15.338;2023-04-28T10:19:45;94888.66;;;13.20;37.21
47636;BME280;33364;50.766;15.338;2023-04-28T10:27:41;94872.75;;;13.46;36.65
47636;BME280;33364;50.766;15.338;2023-04-28T10:30:14;94865.31;;;13.58;36.14
47636;BME280;33364;50.766;15.338;2023-04-28T10:32:40;94862.38;;;13.81;36.38
47636;BME280;33364;50.766;15.338;2023-04-28T10:40:35;94847.53;;;15.41;32.67
47636;BME280;33364;50.766;15.338;2023-04-28T10:43:02;94844.69;;;14.41;34.11
47636;BME280;33364;50.766;15.338;2023-04-28T10:48:19;94848.97;;;14.47;34.31
47636;BME280;33364;50.766;15.338;2023-04-28T10:56:07;94835.34;;;14.44;34.73
47636;BME280;33364;50.766;15.338;2023-04-28T10:58:33;94837.72;;;14.61;33.94
47636;BME280;33364;50.766;15.338;2023-04-28T11:01:23;94833.53;;;14.29;34.67
47636;BME280;33364;50.766;15.338;2023-04-28T11:06:30;94825.34;;;15.40;35.36
47636;BME280;33364;50.766;15.338;2023-04-28T11:11:30;94829.66;;;15.71;32.97
47636;BME280;33364;50.766;15.338;2023-04-28T11:19:21;94834.19;;;16.15;30.89
47636;BME280;33364;50.766;15.338;2023-04-28T11:21:50;94828.59;;;15.72;33.86
47636;BME280;33364;50.766;15.338;2023-04-28T11:24:16;94828.19;;;15.94;35.14
47636;BME280;33364;50.766;15.338;2023-04-28T11:26:43;94831.31;;;15.67;32.93
47636;BME280;33364;50.766;15.338;2023-04-28T11:29:10;94826.81;;;15.17;32.70
47636;BME280;33364;50.766;15.338;2023-04-28T11:31:36;94823.84;;;14.48;33.04
47636;BME280;33364;50.766;15.338;2023-04-28T11:34:08;94822.25;;;14.42;34.76
47636;BME280;33364;50.766;15.338;2023-04-28T11:36:37;94830.25;;;14.47;33.59
47636;BME280;33364;50.766;15.338;2023-04-28T11:39:05;94822.56;;;14.30;34.33
47636;BME280;33364;50.766;15.338;2023-04-28T11:41:37;94822.56;;;14.30;34.47
47636;BME280;33364;50.766;15.338;2023-04-28T11:44:17;94821.00;;;13.99;34.73
47636;BME280;33364;50.766;15.338;2023-04-28T11:46:45;94823.66;;;13.88;34.71
47636;BME280;33364;50.766;15.338;2023-04-28T11:49:12;94815.41;;;13.90;34.79
47636;BME280;33364;50.766;15.338;2023-04-28T11:51:39;94811.91;;;14.00;34.91
47636;BME280;33364;50.766;15.338;2023-04-28T11:54:06;94817.25;;;14.10;35.55
47636;BME280;33364;50.766;15.338;2023-04-28T11:56:37;94802.03;;;14.00;35.61
47636;BME280;33364;50.766;15.338;2023-04-28T11:59:12;94812.41;;;14.12;36.80
47636;BME280;33364;50.766;15.338;2023-04-28T12:01:52;94807.59;;;14.24;36.05
47636;BME280;33364;50.766;15.338;2023-04-28T12:04:28;94810.53;;;14.28;36.35
47636;BME280;33364;50.766;15.338;2023-04-28T12:07:14;94806.56;;;14.05;35.85
47636;BME280;33364;50.766;15.338;2023-04-28T12:09:47;94813.50;;;13.65;35.84
47636;BME280;33364;50.766;15.338;2023-04-28T12:12:29;94805.50;;;13.59;36.02
47636;BME280;33364;50.766;15.338;2023-04-28T12:15:02;94805.50;;;13.44;36.65
47636;BME280;33364;50.766;15.338;2023-04-28T12:20:01;94804.13;;;13.26;36.80
47636;BME280;33364;50.766;15.338;2023-04-28T12:22:27;94802.75;;;13.13;37.19
47636;BME280;33364;50.766;15.338;2023-04-28T12:25:06;94806.19;;;12.93;37.53
47636;BME280;33364;50.766;15.338;2023-04-28T12:27:33;94809.09;;;12.87;38.87
47636;BME280;33364;50.766;15.338;2023-04-28T12:29:59;94812.84;;;13.01;37.29
47636;BME280;33364;50.766;15.338;2023-04-28T12:32:41;94808.34;;;13.12;37.61
47636;BME280;33364;50.766;15.338;2023-04-28T12:35:08;94807.75;;;12.94;38.06
47636;BME280;33364;50.766;15.338;2023-04-28T12:37:34;94801.88;;;12.77;38.45
47636;BME280;33364;50.766;15.338;2023-04-28T12:40:00;94801.31;;;12.80;38.45
47636;BME280;33364;50.766;15.338;2023-04-28T12:42:26;94795.72;;;12.76;39.31
47636;BME280;33364;50.766;15.338;2023-04-28T12:44:53;94792.00;;;12.82;39.65
47636;BME280;33364;50.766;15.338;2023-04-28T12:47:19;94797.59;;;12.86;39.70
47636;BME280;33364;50.766;15.338;2023-04-28T12:49:45;94790.44;;;12.97;39.07
47636;BME280;33364;50.766;15.338;2023-04-28T12:52:13;94795.78;;;13.02;38.92
47636;BME280;33364;50.766;15.338;2023-04-28T12:54:38;94789.09;;;12.99;38.68
47636;BME280;33364;50.766;15.338;2023-04-28T12:57:11;94791.75;;;12.94;38.84
47636;BME280;33364;50.766;15.338;2023-04-28T12:59:38;94790.97;;;12.94;39.31
47636;BME280;33364;50.766;15.338;2023-04-28T13:02:04;94789.66;;;12.96;39.12
47636;BME280;33364;50.766;15.338;2023-04-28T13:04:30;94791.25;;;13.02;40.40
47636;BME280;33364;50.766;15.338;2023-04-28T13:06:57;94788.59;;;13.08;40.17
47636;BME280;33364;50.766;15.338;2023-04-28T13:09:23;94778.44;;;12.94;40.43
47636;BME280;33364;50.766;15.338;2023-04-28T13:11:49;94777.88;;;12.82;40.58
47636;BME280;33364;50.766;15.338;2023-04-28T13:14:21;94769.50;;;12.53;41.72
47636;BME280;33364;50.766;15.338;2023-04-28T13:16:47;94781.47;;;12.50;41.58
47636;BME280;33364;50.766;15.338;2023-04-28T13:19:13;94771.34;;;12.47;41.78
47636;BME280;33364;50.766;15.338;2023-04-28T13:21:40;94779.38;;;12.52;41.57
47636;BME280;33364;50.766;15.338;2023-04-28T13:24:07;94774.09;;;12.62;41.77
47636;BME280;33364;50.766;15.338;2023-04-28T13:26:33;94773.47;;;12.45;41.03
47636;BME280;33364;50.766;15.338;2023-04-28T13:28:59;94775.63;;;12.48;41.16